createdAt,value
2018-12-25T00:00:40.847Z,1015.26
2018-12-25T00:01:40.872Z,1015.24
2018-12-25T00:02:40.894Z,1015.31
2018-12-25T00:03:40.918Z,1015.26
2018-12-25T00:04:40.942Z,1015.31
2018-12-25T00:05:40.965Z,1015.31
2018-12-25T00:06:40.987Z,1015.29
2018-12-25T00:07:41.014Z,1015.28
2018-12-25T00:08:41.036Z,1015.28
2018-12-25T00:09:41.058Z,1015.30
2018-12-25T00:10:41.083Z,1015.27
2018-12-25T00:11:41.107Z,1015.19
2018-12-25T00:12:41.131Z,1015.15
2018-12-25T00:13:41.153Z,1015.09
2018-12-25T00:14:41.178Z,1015.10
2018-12-25T00:15:41.280Z,1015.10
2018-12-25T00:16:41.226Z,1015.08
2018-12-25T00:17:41.248Z,1015.08
2018-12-25T00:18:41.271Z,1015.13
2018-12-25T00:19:41.295Z,1015.12
2018-12-25T00:20:41.323Z,1015.13
2018-12-25T00:21:41.343Z,1015.09
2018-12-25T00:22:41.366Z,1015.13
2018-12-25T00:23:41.390Z,1015.11
2018-12-25T00:24:41.414Z,1015.13
2018-12-25T00:25:41.437Z,1015.10
2018-12-25T00:26:41.461Z,1015.16
2018-12-25T00:27:41.485Z,1015.15
2018-12-25T00:28:41.509Z,1015.06
2018-12-25T00:29:41.532Z,1015.08
2018-12-25T00:30:41.556Z,1015.11
2018-12-25T00:31:41.584Z,1015.05
2018-12-25T00:32:41.604Z,1015.08
2018-12-25T00:33:41.628Z,1015.11
2018-12-25T00:34:41.677Z,1015.12
2018-12-25T00:35:41.725Z,1015.10
2018-12-25T00:36:41.698Z,1015.11
2018-12-25T00:37:41.723Z,1015.09
2018-12-25T00:38:41.746Z,1015.09
2018-12-25T00:39:41.770Z,1015.07
2018-12-25T00:40:41.795Z,1015.07
2018-12-25T00:41:41.817Z,1015.16
2018-12-25T00:42:41.842Z,1015.13
2018-12-25T00:43:41.865Z,1015.19
2018-12-25T00:44:41.890Z,1015.21
2018-12-25T00:45:41.914Z,1015.13
2018-12-25T00:46:41.936Z,1015.20
2018-12-25T00:47:41.962Z,1015.14
2018-12-25T00:48:41.987Z,1015.17
2018-12-25T00:49:42.009Z,1015.20
2018-12-25T00:50:42.032Z,1015.18
2018-12-25T00:51:42.062Z,1015.15
2018-12-25T00:52:42.082Z,1015.22
2018-12-25T00:53:42.105Z,1015.18
2018-12-25T00:54:42.135Z,1015.20
2018-12-25T00:55:42.154Z,1015.19
2018-12-25T00:56:42.177Z,1015.20
2018-12-25T00:57:42.202Z,1015.23
2018-12-25T00:58:42.225Z,1015.20
2018-12-25T00:59:42.251Z,1015.21
2018-12-25T01:00:42.274Z,1015.19
2018-12-25T01:01:42.297Z,1015.19
2018-12-25T01:02:42.371Z,1015.17
2018-12-25T01:03:42.345Z,1015.16
2018-12-25T01:04:42.371Z,1015.12
2018-12-25T01:05:42.392Z,1015.17
2018-12-25T01:06:42.417Z,1015.10
2018-12-25T01:07:42.444Z,1015.09
2018-12-25T01:08:42.464Z,1015.08
2018-12-25T01:09:42.489Z,1015.08
2018-12-25T01:10:42.514Z,1015.07
2018-12-25T01:11:42.538Z,1015.09
2018-12-25T01:12:42.562Z,1015.10
2018-12-25T01:13:42.585Z,1015.09
2018-12-25T01:14:42.610Z,1015.16
2018-12-25T01:15:42.634Z,1015.17
2018-12-25T01:16:42.658Z,1015.17
2018-12-25T01:17:42.685Z,1015.22
2018-12-25T01:18:42.706Z,1015.23
2018-12-25T01:19:42.730Z,1015.23
2018-12-25T01:20:42.754Z,1015.23
2018-12-25T01:21:42.778Z,1015.21
2018-12-25T01:22:42.803Z,1015.18
2018-12-25T01:23:42.827Z,1015.22
2018-12-25T01:24:42.851Z,1015.25
2018-12-25T01:25:42.874Z,1015.25
2018-12-25T01:26:42.896Z,1015.24
2018-12-25T01:27:42.928Z,1015.25
2018-12-25T01:28:42.948Z,1015.24
2018-12-25T01:29:42.969Z,1015.26
2018-12-25T01:30:42.995Z,1015.27
2018-12-25T01:31:43.021Z,1015.28
2018-12-25T01:32:43.045Z,1015.29
2018-12-25T01:33:43.066Z,1015.33
2018-12-25T01:34:43.092Z,1015.34
2018-12-25T01:35:43.115Z,1015.32
2018-12-25T01:36:43.138Z,1015.33
2018-12-25T01:37:43.164Z,1015.39
2018-12-25T01:38:43.189Z,1015.34
2018-12-25T01:39:43.211Z,1015.38
2018-12-25T01:40:43.236Z,1015.41
2018-12-25T01:41:43.259Z,1015.43
2018-12-25T01:42:43.283Z,1015.42
2018-12-25T01:43:43.307Z,1015.47
2018-12-25T01:44:43.385Z,1015.47
2018-12-25T01:45:43.355Z,1015.47
2018-12-25T01:46:43.381Z,1015.49
2018-12-25T01:47:43.405Z,1015.45
2018-12-25T01:48:43.428Z,1015.44
2018-12-25T01:49:43.455Z,1015.45
2018-12-25T01:50:43.479Z,1015.43
2018-12-25T01:51:43.500Z,1015.46
2018-12-25T01:52:43.524Z,1015.43
2018-12-25T01:53:43.549Z,1015.42
2018-12-25T01:54:43.571Z,1015.47
2018-12-25T01:55:43.597Z,1015.45
2018-12-25T01:56:43.620Z,1015.50
2018-12-25T01:57:43.644Z,1015.52
2018-12-25T01:58:43.668Z,1015.55
2018-12-25T01:59:43.692Z,1015.54
2018-12-25T02:00:43.715Z,1015.49
2018-12-25T02:01:43.739Z,1015.53
2018-12-25T02:02:43.765Z,1015.51
2018-12-25T02:03:43.790Z,1015.51
2018-12-25T02:04:43.812Z,1015.53
2018-12-25T02:05:43.835Z,1015.52
2018-12-25T02:06:43.859Z,1015.53
2018-12-25T02:07:43.883Z,1015.50
2018-12-25T02:08:43.908Z,1015.49
2018-12-25T02:09:43.931Z,1015.44
2018-12-25T02:10:43.955Z,1015.42
2018-12-25T02:11:43.980Z,1015.42
2018-12-25T02:12:44.003Z,1015.41
2018-12-25T02:13:44.028Z,1015.40
2018-12-25T02:14:44.051Z,1015.42
2018-12-25T02:15:44.076Z,1015.50
2018-12-25T02:16:44.100Z,1015.50
2018-12-25T02:17:44.122Z,1015.50
2018-12-25T02:18:44.147Z,1015.51
2018-12-25T02:19:44.172Z,1015.55
2018-12-25T02:20:44.196Z,1015.58
2018-12-25T02:21:44.218Z,1015.59
2018-12-25T02:22:44.242Z,1015.58
2018-12-25T02:23:44.268Z,1015.60
2018-12-25T02:24:44.291Z,1015.62
2018-12-25T02:25:44.315Z,1015.61
2018-12-25T02:26:44.339Z,1015.51
2018-12-25T02:27:44.363Z,1015.56
2018-12-25T02:28:44.388Z,1015.56
2018-12-25T02:29:44.409Z,1015.51
2018-12-25T02:30:44.438Z,1015.55
2018-12-25T02:31:44.460Z,1015.54
2018-12-25T02:32:44.483Z,1015.51
2018-12-25T02:33:44.509Z,1015.52
2018-12-25T02:34:44.532Z,1015.46
2018-12-25T02:35:44.556Z,1015.50
2018-12-25T02:36:44.580Z,1015.53
2018-12-25T02:37:44.602Z,1015.51
2018-12-25T02:38:44.625Z,1015.49
2018-12-25T02:39:44.652Z,1015.51
2018-12-25T02:40:44.676Z,1015.54
2018-12-25T02:41:44.698Z,1015.53
2018-12-25T02:42:44.720Z,1015.56
2018-12-25T02:43:44.747Z,1015.60
2018-12-25T02:44:44.770Z,1015.66
2018-12-25T02:45:44.793Z,1015.60
2018-12-25T02:46:44.830Z,1015.62
2018-12-25T02:47:44.842Z,1015.62
2018-12-25T02:48:44.879Z,1015.57
2018-12-25T02:49:50.177Z,1015.56
2018-12-25T02:50:44.911Z,1015.59
2018-12-25T02:51:44.936Z,1015.57
2018-12-25T02:52:44.960Z,1015.58
2018-12-25T02:53:44.984Z,1015.62
2018-12-25T02:54:45.007Z,1015.60
2018-12-25T02:55:45.034Z,1015.62
2018-12-25T02:56:45.055Z,1015.68
2018-12-25T02:57:45.079Z,1015.64
2018-12-25T02:58:45.102Z,1015.63
2018-12-25T02:59:45.125Z,1015.62
2018-12-25T03:00:46.635Z,1015.60
2018-12-25T03:01:45.174Z,1015.58
2018-12-25T03:02:45.199Z,1015.56
2018-12-25T03:03:45.221Z,1015.51
2018-12-25T03:04:45.244Z,1015.56
2018-12-25T03:05:45.519Z,1015.48
2018-12-25T03:06:45.292Z,1015.46
2018-12-25T03:07:45.313Z,1015.46
2018-12-25T03:08:45.341Z,1015.46
2018-12-25T03:09:45.361Z,1015.47
2018-12-25T03:10:45.384Z,1015.52
2018-12-25T03:11:45.409Z,1015.52
2018-12-25T03:12:45.432Z,1015.57
2018-12-25T03:13:45.454Z,1015.59
2018-12-25T03:14:45.478Z,1015.60
2018-12-25T03:15:45.503Z,1015.65
2018-12-25T03:16:45.538Z,1015.60
2018-12-25T03:17:45.548Z,1015.60
2018-12-25T03:18:45.573Z,1015.56
2018-12-25T03:19:45.597Z,1015.57
2018-12-25T03:20:45.619Z,1015.57
2018-12-25T03:21:45.642Z,1015.59
2018-12-25T03:22:45.665Z,1015.57
2018-12-25T03:23:45.692Z,1015.63
2018-12-25T03:24:45.719Z,1015.62
2018-12-25T03:25:45.735Z,1015.60
2018-12-25T03:26:45.760Z,1015.66
2018-12-25T03:27:45.781Z,1015.63
2018-12-25T03:28:45.804Z,1015.56
2018-12-25T03:29:45.828Z,1015.57
2018-12-25T03:30:45.853Z,1015.52
2018-12-25T03:31:45.893Z,1015.49
2018-12-25T03:32:45.900Z,1015.47
2018-12-25T03:33:45.933Z,1015.52
2018-12-25T03:34:45.945Z,1015.52
2018-12-25T03:35:45.968Z,1015.48
2018-12-25T03:36:45.991Z,1015.48
2018-12-25T03:37:46.017Z,1015.47
2018-12-25T03:38:46.042Z,1015.39
2018-12-25T03:39:46.069Z,1015.40
2018-12-25T03:40:46.084Z,1015.42
2018-12-25T03:41:46.109Z,1015.32
2018-12-25T03:42:46.131Z,1015.38
2018-12-25T03:43:46.155Z,1015.34
2018-12-25T03:44:46.176Z,1015.35
2018-12-25T03:45:46.200Z,1015.43
2018-12-25T03:46:46.223Z,1015.40
2018-12-25T03:47:46.247Z,1015.45
2018-12-25T03:48:46.274Z,1015.37
2018-12-25T03:49:46.291Z,1015.40
2018-12-25T03:50:46.315Z,1015.38
2018-12-25T03:51:46.338Z,1015.38
2018-12-25T03:52:46.362Z,1015.43
2018-12-25T03:53:46.386Z,1015.43
2018-12-25T03:54:46.407Z,1015.44
2018-12-25T03:55:46.432Z,1015.45
2018-12-25T03:56:46.454Z,1015.47
2018-12-25T03:57:46.475Z,1015.42
2018-12-25T03:58:46.634Z,1015.45
2018-12-25T03:59:46.523Z,1015.44
2018-12-25T04:00:46.545Z,1015.48
2018-12-25T04:01:46.572Z,1015.44
2018-12-25T04:02:46.592Z,1015.40
2018-12-25T04:03:46.617Z,1015.40
2018-12-25T04:04:46.641Z,1015.38
2018-12-25T04:05:46.675Z,1015.37
2018-12-25T04:06:46.685Z,1015.34
2018-12-25T04:07:46.711Z,1015.37
2018-12-25T04:08:46.732Z,1015.35
2018-12-25T04:09:46.769Z,1015.34
2018-12-25T04:10:46.793Z,1015.34
2018-12-25T04:11:46.801Z,1015.33
2018-12-25T04:12:46.824Z,1015.35
2018-12-25T04:13:46.847Z,1015.37
2018-12-25T04:14:46.872Z,1015.34
2018-12-25T04:15:46.893Z,1015.32
2018-12-25T04:16:46.920Z,1015.31
2018-12-25T04:17:46.940Z,1015.36
2018-12-25T04:18:46.963Z,1015.36
2018-12-25T04:19:46.989Z,1015.37
2018-12-25T04:20:47.010Z,1015.36
2018-12-25T04:21:47.032Z,1015.41
2018-12-25T04:22:47.057Z,1015.37
2018-12-25T04:23:47.085Z,1015.42
2018-12-25T04:24:47.103Z,1015.44
2018-12-25T04:25:47.126Z,1015.40
2018-12-25T04:26:47.239Z,1015.46
2018-12-25T04:27:47.174Z,1015.46
2018-12-25T04:28:47.195Z,1015.45
2018-12-25T04:29:47.220Z,1015.48
2018-12-25T04:30:47.244Z,1015.45
2018-12-25T04:31:47.272Z,1015.46
2018-12-25T04:32:47.289Z,1015.45
2018-12-25T04:33:47.311Z,1015.43
2018-12-25T04:34:47.337Z,1015.44
2018-12-25T04:35:47.359Z,1015.44
2018-12-25T04:36:47.382Z,1015.43
2018-12-25T04:37:47.402Z,1015.47
2018-12-25T04:38:47.427Z,1015.48
2018-12-25T04:39:47.451Z,1015.47
2018-12-25T04:40:47.475Z,1015.52
2018-12-25T04:41:47.496Z,1015.51
2018-12-25T04:42:47.521Z,1015.52
2018-12-25T04:43:47.548Z,1015.49
2018-12-25T04:44:47.568Z,1015.45
2018-12-25T04:45:47.589Z,1015.50
2018-12-25T04:46:47.612Z,1015.51
2018-12-25T04:47:47.636Z,1015.49
2018-12-25T04:48:47.752Z,1015.48
2018-12-25T04:49:47.688Z,1015.51
2018-12-25T04:50:47.705Z,1015.49
2018-12-25T04:51:47.729Z,1015.47
2018-12-25T04:52:47.752Z,1015.50
2018-12-25T04:53:47.773Z,1015.52
2018-12-25T04:54:47.803Z,1015.49
2018-12-25T04:55:47.824Z,1015.50
2018-12-25T04:56:47.844Z,1015.52
2018-12-25T04:57:47.867Z,1015.52
2018-12-25T04:58:47.891Z,1015.52
2018-12-25T04:59:47.914Z,1015.55
2018-12-25T05:00:47.939Z,1015.60
2018-12-25T05:01:47.960Z,1015.49
2018-12-25T05:02:47.983Z,1015.52
2018-12-25T05:03:48.006Z,1015.53
2018-12-25T05:04:48.030Z,1015.53
2018-12-25T05:05:48.053Z,1015.53
2018-12-25T05:06:48.076Z,1015.59
2018-12-25T05:07:48.099Z,1015.56
2018-12-25T05:08:48.128Z,1015.62
2018-12-25T05:09:48.146Z,1015.62
2018-12-25T05:10:48.169Z,1015.67
2018-12-25T05:11:48.192Z,1015.62
2018-12-25T05:12:48.215Z,1015.56
2018-12-25T05:13:48.236Z,1015.61
2018-12-25T05:14:48.261Z,1015.66
2018-12-25T05:15:48.285Z,1015.65
2018-12-25T05:16:48.308Z,1015.64
2018-12-25T05:17:48.330Z,1015.62
2018-12-25T05:18:48.354Z,1015.65
2018-12-25T05:19:48.377Z,1015.64
2018-12-25T05:20:48.401Z,1015.65
2018-12-25T05:21:48.422Z,1015.65
2018-12-25T05:22:48.447Z,1015.59
2018-12-25T05:23:48.470Z,1015.58
2018-12-25T05:24:48.493Z,1015.62
2018-12-25T05:25:48.515Z,1015.63
2018-12-25T05:26:48.539Z,1015.69
2018-12-25T05:27:48.562Z,1015.69
2018-12-25T05:28:48.585Z,1015.67
2018-12-25T05:29:50.720Z,1015.68
2018-12-25T05:30:48.631Z,1015.70
2018-12-25T05:31:48.654Z,1015.75
2018-12-25T05:32:48.678Z,1015.69
2018-12-25T05:33:48.700Z,1015.71
2018-12-25T05:34:48.723Z,1015.67
2018-12-25T05:35:48.747Z,1015.71
2018-12-25T05:36:48.772Z,1015.68
2018-12-25T05:37:48.793Z,1015.72
2018-12-25T05:38:48.818Z,1015.69
2018-12-25T05:39:48.840Z,1015.70
2018-12-25T05:40:48.863Z,1015.73
2018-12-25T05:41:48.885Z,1015.75
2018-12-25T05:42:48.909Z,1015.75
2018-12-25T05:43:48.934Z,1015.78
2018-12-25T05:44:48.956Z,1015.75
2018-12-25T05:45:48.979Z,1015.78
2018-12-25T05:46:49.002Z,1015.78
2018-12-25T05:47:49.025Z,1015.81
2018-12-25T05:48:49.048Z,1015.85
2018-12-25T05:49:49.071Z,1015.79
2018-12-25T05:50:49.094Z,1015.85
2018-12-25T05:51:49.206Z,1015.78
2018-12-25T05:52:49.142Z,1015.83
2018-12-25T05:53:49.165Z,1015.80
2018-12-25T05:54:49.190Z,1015.84
2018-12-25T05:55:49.211Z,1015.84
2018-12-25T05:56:49.237Z,1015.84
2018-12-25T05:57:49.257Z,1015.78
2018-12-25T05:58:49.532Z,1015.82
2018-12-25T05:59:49.303Z,1015.84
2018-12-25T06:00:49.327Z,1015.83
2018-12-25T06:01:49.350Z,1015.84
2018-12-25T06:02:49.373Z,1015.85
2018-12-25T06:03:49.396Z,1015.81
2018-12-25T06:04:49.421Z,1015.83
2018-12-25T06:05:49.443Z,1015.83
2018-12-25T06:06:49.464Z,1015.79
2018-12-25T06:07:49.533Z,1015.75
2018-12-25T06:08:49.511Z,1015.78
2018-12-25T06:09:49.533Z,1015.81
2018-12-25T06:10:49.558Z,1015.81
2018-12-25T06:11:49.581Z,1015.84
2018-12-25T06:12:49.604Z,1015.85
2018-12-25T06:13:49.625Z,1015.85
2018-12-25T06:14:49.649Z,1015.83
2018-12-25T06:15:49.674Z,1015.85
2018-12-25T06:16:49.696Z,1015.86
2018-12-25T06:17:49.718Z,1015.81
2018-12-25T06:18:49.741Z,1015.81
2018-12-25T06:19:49.764Z,1015.82
2018-12-25T06:20:55.075Z,1015.83
2018-12-25T06:21:49.810Z,1015.84
2018-12-25T06:22:49.833Z,1015.81
2018-12-25T06:23:49.858Z,1015.87
2018-12-25T06:24:49.881Z,1015.87
2018-12-25T06:25:49.902Z,1015.87
2018-12-25T06:26:49.926Z,1015.86
2018-12-25T06:27:49.952Z,1015.85
2018-12-25T06:28:49.972Z,1015.80
2018-12-25T06:29:49.993Z,1015.78
2018-12-25T06:30:50.018Z,1015.78
2018-12-25T06:31:50.042Z,1015.80
2018-12-25T06:32:50.065Z,1015.78
2018-12-25T06:33:50.084Z,1015.80
2018-12-25T06:34:50.110Z,1015.81
2018-12-25T06:35:50.132Z,1015.82
2018-12-25T06:36:50.157Z,1015.80
2018-12-25T06:37:50.176Z,1015.82
2018-12-25T06:38:50.201Z,1015.83
2018-12-25T06:39:50.224Z,1015.80
2018-12-25T06:40:50.247Z,1015.81
2018-12-25T06:41:50.268Z,1015.87
2018-12-25T06:42:50.292Z,1015.89
2018-12-25T06:43:50.315Z,1015.84
2018-12-25T06:44:50.340Z,1015.80
2018-12-25T06:45:50.361Z,1015.77
2018-12-25T06:46:50.383Z,1015.78
2018-12-25T06:47:50.408Z,1015.76
2018-12-25T06:48:50.431Z,1015.74
2018-12-25T06:49:50.453Z,1015.68
2018-12-25T06:50:50.477Z,1015.71
2018-12-25T06:51:50.499Z,1015.69
2018-12-25T06:52:50.522Z,1015.72
2018-12-25T06:53:50.545Z,1015.73
2018-12-25T06:54:50.568Z,1015.70
2018-12-25T06:55:50.590Z,1015.72
2018-12-25T06:56:50.613Z,1015.70
2018-12-25T06:57:50.636Z,1015.72
2018-12-25T06:58:50.660Z,1015.72
2018-12-25T06:59:50.682Z,1015.70
2018-12-25T07:00:50.705Z,1015.74
2018-12-25T07:01:50.728Z,1015.73
2018-12-25T07:02:50.751Z,1015.76
2018-12-25T07:03:50.774Z,1015.78
2018-12-25T07:04:50.797Z,1015.75
2018-12-25T07:05:50.819Z,1015.83
2018-12-25T07:06:50.842Z,1015.81
2018-12-25T07:07:50.865Z,1015.79
2018-12-25T07:08:50.892Z,1015.82
2018-12-25T07:09:50.911Z,1015.82
2018-12-25T07:10:50.935Z,1015.76
2018-12-25T07:11:50.956Z,1015.79
2018-12-25T07:12:50.980Z,1015.77
2018-12-25T07:13:51.002Z,1015.76
2018-12-25T07:14:51.024Z,1015.81
2018-12-25T07:15:51.047Z,1015.77
2018-12-25T07:16:51.071Z,1015.78
2018-12-25T07:17:51.093Z,1015.82
2018-12-25T07:18:51.114Z,1015.77
2018-12-25T07:19:51.138Z,1015.77
2018-12-25T07:20:51.163Z,1015.78
2018-12-25T07:21:51.185Z,1015.78
2018-12-25T07:22:51.206Z,1015.80
2018-12-25T07:23:51.230Z,1015.82
2018-12-25T07:24:51.254Z,1015.76
2018-12-25T07:25:51.726Z,1015.81
2018-12-25T07:26:51.297Z,1015.80
2018-12-25T07:27:51.318Z,1015.75
2018-12-25T07:28:51.343Z,1015.75
2018-12-25T07:29:51.365Z,1015.73
2018-12-25T07:30:51.389Z,1015.72
2018-12-25T07:31:51.411Z,1015.77
2018-12-25T07:32:51.434Z,1015.76
2018-12-25T07:33:51.460Z,1015.75
2018-12-25T07:34:51.479Z,1015.75
2018-12-25T07:35:51.503Z,1015.78
2018-12-25T07:36:51.525Z,1015.74
2018-12-25T07:37:51.546Z,1015.76
2018-12-25T07:38:51.572Z,1015.76
2018-12-25T07:39:51.597Z,1015.67
2018-12-25T07:40:51.616Z,1015.69
2018-12-25T07:41:51.641Z,1015.60
2018-12-25T07:42:51.661Z,1015.61
2018-12-25T07:43:51.684Z,1015.63
2018-12-25T07:44:51.708Z,1015.63
2018-12-25T07:45:51.730Z,1015.60
2018-12-25T07:46:51.752Z,1015.63
2018-12-25T07:47:51.776Z,1015.59
2018-12-25T07:48:51.801Z,1015.59
2018-12-25T07:49:51.822Z,1015.60
2018-12-25T07:50:51.845Z,1015.69
2018-12-25T07:51:51.870Z,1015.68
2018-12-25T07:52:51.891Z,1015.72
2018-12-25T07:53:51.916Z,1015.63
2018-12-25T07:54:51.935Z,1015.68
2018-12-25T07:55:51.959Z,1015.69
2018-12-25T07:56:51.983Z,1015.71
2018-12-25T07:57:52.004Z,1015.70
2018-12-25T07:58:52.027Z,1015.76
2018-12-25T07:59:52.050Z,1015.78
2018-12-25T08:00:52.074Z,1015.83
2018-12-25T08:01:52.095Z,1015.83
2018-12-25T08:02:52.117Z,1015.81
2018-12-25T08:03:52.141Z,1015.78
2018-12-25T08:04:52.165Z,1015.75
2018-12-25T08:05:53.483Z,1015.79
2018-12-25T08:06:52.213Z,1015.80
2018-12-25T08:07:52.231Z,1015.76
2018-12-25T08:08:52.256Z,1015.81
2018-12-25T08:09:52.277Z,1015.82
2018-12-25T08:10:52.302Z,1015.84
2018-12-25T08:11:52.374Z,1015.87
2018-12-25T08:12:52.397Z,1015.86
2018-12-25T08:13:52.368Z,1015.85
2018-12-25T08:14:52.390Z,1015.89
2018-12-25T08:15:52.415Z,1015.88
2018-12-25T08:16:52.437Z,1015.88
2018-12-25T08:17:52.459Z,1015.88
2018-12-25T08:18:52.481Z,1015.91
2018-12-25T08:19:52.504Z,1015.90
2018-12-25T08:20:52.528Z,1015.90
2018-12-25T08:21:52.550Z,1015.88
2018-12-25T08:22:52.571Z,1015.86
2018-12-25T08:23:52.601Z,1015.89
2018-12-25T08:24:52.620Z,1015.92
2018-12-25T08:25:52.640Z,1015.94
2018-12-25T08:26:52.663Z,1015.94
2018-12-25T08:27:52.688Z,1015.95
2018-12-25T08:28:52.709Z,1016.01
2018-12-25T08:29:52.732Z,1015.97
2018-12-25T08:30:52.755Z,1015.98
2018-12-25T08:31:52.778Z,1015.96
2018-12-25T08:32:52.801Z,1015.99
2018-12-25T08:33:52.822Z,1015.96
2018-12-25T08:34:52.846Z,1015.92
2018-12-25T08:35:52.869Z,1015.97
2018-12-25T08:36:52.892Z,1015.96
2018-12-25T08:37:52.915Z,1015.99
2018-12-25T08:38:52.938Z,1016.04
2018-12-25T08:39:52.964Z,1016.08
2018-12-25T08:40:52.985Z,1016.08
2018-12-25T08:41:53.008Z,1016.07
2018-12-25T08:42:53.032Z,1016.14
2018-12-25T08:43:53.056Z,1016.13
2018-12-25T08:44:53.078Z,1016.06
2018-12-25T08:45:53.104Z,1016.07
2018-12-25T08:46:53.125Z,1016.06
2018-12-25T08:47:53.150Z,1016.03
2018-12-25T08:48:53.172Z,1016.04
2018-12-25T08:49:53.197Z,1016.04
2018-12-25T08:50:53.224Z,1016.02
2018-12-25T08:51:53.245Z,1016.03
2018-12-25T08:52:53.269Z,1016.03
2018-12-25T08:53:53.289Z,1016.02
2018-12-25T08:54:53.315Z,1016.00
2018-12-25T08:55:53.338Z,1015.99
2018-12-25T08:56:53.364Z,1016.03
2018-12-25T08:57:54.898Z,1016.05
2018-12-25T08:58:53.410Z,1016.06
2018-12-25T08:59:53.435Z,1016.14
2018-12-25T09:00:53.462Z,1016.07
2018-12-25T09:01:53.483Z,1016.14
2018-12-25T09:02:53.506Z,1016.15
2018-12-25T09:03:53.531Z,1016.13
2018-12-25T09:04:53.554Z,1016.14
2018-12-25T09:05:53.577Z,1016.16
2018-12-25T09:06:53.602Z,1016.17
2018-12-25T09:07:53.626Z,1016.13
2018-12-25T09:08:53.650Z,1016.15
2018-12-25T09:09:53.672Z,1016.16
2018-12-25T09:10:53.697Z,1016.21
2018-12-25T09:11:53.720Z,1016.23
2018-12-25T09:12:53.746Z,1016.27
2018-12-25T09:13:53.769Z,1016.30
2018-12-25T09:14:53.791Z,1016.29
2018-12-25T09:15:53.816Z,1016.28
2018-12-25T09:16:53.841Z,1016.28
2018-12-25T09:17:53.863Z,1016.30
2018-12-25T09:18:53.888Z,1016.31
2018-12-25T09:19:56.767Z,1016.30
2018-12-25T09:20:53.938Z,1016.30
2018-12-25T09:21:53.960Z,1016.34
2018-12-25T09:22:53.984Z,1016.31
2018-12-25T09:23:54.007Z,1016.28
2018-12-25T09:24:54.081Z,1016.34
2018-12-25T09:25:54.054Z,1016.34
2018-12-25T09:26:54.171Z,1016.37
2018-12-25T09:27:54.103Z,1016.37
2018-12-25T09:28:54.129Z,1016.36
2018-12-25T09:29:54.151Z,1016.40
2018-12-25T09:30:54.174Z,1016.42
2018-12-25T09:31:54.201Z,1016.40
2018-12-25T09:32:54.222Z,1016.42
2018-12-25T09:33:54.256Z,1016.45
2018-12-25T09:34:54.270Z,1016.45
2018-12-25T09:35:54.295Z,1016.44
2018-12-25T09:36:54.318Z,1016.50
2018-12-25T09:37:54.346Z,1016.47
2018-12-25T09:38:54.366Z,1016.45
2018-12-25T09:39:54.390Z,1016.46
2018-12-25T09:40:56.290Z,1016.41
2018-12-25T09:41:54.438Z,1016.39
2018-12-25T09:42:54.462Z,1016.36
2018-12-25T09:43:54.488Z,1016.35
2018-12-25T09:44:54.512Z,1016.31
2018-12-25T09:45:54.534Z,1016.31
2018-12-25T09:46:54.559Z,1016.26
2018-12-25T09:47:54.584Z,1016.25
2018-12-25T09:48:54.609Z,1016.25
2018-12-25T09:49:54.631Z,1016.24
2018-12-25T09:50:54.655Z,1016.25
2018-12-25T09:51:54.892Z,1016.28
2018-12-25T09:52:54.705Z,1016.23
2018-12-25T09:53:54.726Z,1016.24
2018-12-25T09:54:54.750Z,1016.24
2018-12-25T09:55:54.773Z,1016.26
2018-12-25T09:56:54.798Z,1016.29
2018-12-25T09:57:54.822Z,1016.31
2018-12-25T09:58:54.845Z,1016.25
2018-12-25T09:59:54.870Z,1016.18
2018-12-25T10:00:54.893Z,1016.19
2018-12-25T10:01:54.918Z,1016.16
2018-12-25T10:02:54.939Z,1016.17
2018-12-25T10:03:54.967Z,1016.17
2018-12-25T10:04:56.598Z,1016.18
2018-12-25T10:05:55.014Z,1016.17
2018-12-25T10:06:55.040Z,1016.21
2018-12-25T10:07:55.061Z,1016.20
2018-12-25T10:08:55.084Z,1016.24
2018-12-25T10:09:55.107Z,1016.24
2018-12-25T10:10:55.132Z,1016.26
2018-12-25T10:11:55.156Z,1016.28
2018-12-25T10:12:55.181Z,1016.25
2018-12-25T10:13:55.202Z,1016.30
2018-12-25T10:14:55.228Z,1016.28
2018-12-25T10:15:55.253Z,1016.32
2018-12-25T10:16:55.276Z,1016.27
2018-12-25T10:17:55.303Z,1016.21
2018-12-25T10:18:55.323Z,1016.20
2018-12-25T10:19:55.347Z,1016.14
2018-12-25T10:20:55.372Z,1016.16
2018-12-25T10:22:02.779Z,1016.13
2018-12-25T10:22:55.422Z,1016.10
2018-12-25T10:23:55.446Z,1016.09
2018-12-25T10:24:55.469Z,1016.04
2018-12-25T10:25:56.134Z,1016.09
2018-12-25T10:26:55.517Z,1016.06
2018-12-25T10:27:55.542Z,1016.08
2018-12-25T10:28:55.570Z,1016.06
2018-12-25T10:29:55.590Z,1016.05
2018-12-25T10:30:55.615Z,1016.07
2018-12-25T10:31:55.639Z,1016.09
2018-12-25T10:32:55.663Z,1016.09
2018-12-25T10:33:55.687Z,1016.10
2018-12-25T10:34:55.711Z,1016.14
2018-12-25T10:35:55.736Z,1016.13
2018-12-25T10:36:55.761Z,1016.12
2018-12-25T10:37:55.785Z,1016.16
2018-12-25T10:38:55.809Z,1016.11
2018-12-25T10:39:55.834Z,1016.11
2018-12-25T10:40:55.858Z,1016.12
2018-12-25T10:41:55.886Z,1016.12
2018-12-25T10:42:55.908Z,1016.16
2018-12-25T10:43:55.932Z,1016.17
2018-12-25T10:44:55.986Z,1016.14
2018-12-25T10:45:55.981Z,1016.14
2018-12-25T10:46:56.007Z,1016.14
2018-12-25T10:47:56.033Z,1016.15
2018-12-25T10:48:56.057Z,1016.13
2018-12-25T10:49:56.084Z,1016.09
2018-12-25T10:50:56.105Z,1016.11
2018-12-25T10:51:56.130Z,1016.08
2018-12-25T10:52:56.155Z,1016.09
2018-12-25T10:53:56.179Z,1016.07
2018-12-25T10:54:56.204Z,1016.04
2018-12-25T10:55:56.230Z,1016.05
2018-12-25T10:56:56.255Z,1016.00
2018-12-25T10:57:56.280Z,1015.95
2018-12-25T10:58:56.305Z,1015.95
2018-12-25T10:59:56.331Z,1015.96
2018-12-25T11:00:56.356Z,1015.93
2018-12-25T11:01:56.379Z,1015.99
2018-12-25T11:02:56.406Z,1015.97
2018-12-25T11:03:56.430Z,1016.04
2018-12-25T11:04:56.457Z,1016.05
2018-12-25T11:05:56.480Z,1016.09
2018-12-25T11:06:56.507Z,1016.17
2018-12-25T11:07:56.532Z,1016.19
2018-12-25T11:08:56.557Z,1016.14
2018-12-25T11:09:56.582Z,1016.13
2018-12-25T11:10:56.606Z,1016.12
2018-12-25T11:11:56.636Z,1016.18
2018-12-25T11:12:56.658Z,1016.18
2018-12-25T11:13:56.683Z,1016.19
2018-12-25T11:14:56.710Z,1016.17
2018-12-25T11:15:56.733Z,1016.24
2018-12-25T11:16:56.762Z,1016.22
2018-12-25T11:17:56.789Z,1016.22
2018-12-25T11:18:56.809Z,1016.19
2018-12-25T11:19:56.836Z,1016.18
2018-12-25T11:20:56.860Z,1016.13
2018-12-25T11:21:56.886Z,1016.15
2018-12-25T11:22:56.910Z,1016.16
2018-12-25T11:23:56.935Z,1016.21
2018-12-25T11:24:56.960Z,1016.22
2018-12-25T11:25:56.984Z,1016.24
2018-12-25T11:26:57.009Z,1016.36
2018-12-25T11:27:57.034Z,1016.28
2018-12-25T11:28:57.060Z,1016.30
2018-12-25T11:29:57.085Z,1016.29
2018-12-25T11:30:57.108Z,1016.26
2018-12-25T11:31:57.134Z,1016.27
2018-12-25T11:32:57.160Z,1016.28
2018-12-25T11:33:57.183Z,1016.25
2018-12-25T11:34:57.458Z,1016.24
2018-12-25T11:35:57.232Z,1016.23
2018-12-25T11:36:57.285Z,1016.23
2018-12-25T11:37:57.282Z,1016.23
2018-12-25T11:38:57.307Z,1016.19
2018-12-25T11:39:57.330Z,1016.20
2018-12-25T11:40:57.356Z,1016.13
2018-12-25T11:41:57.382Z,1016.23
2018-12-25T11:42:57.404Z,1016.11
2018-12-25T11:43:57.432Z,1016.12
2018-12-25T11:44:57.452Z,1016.11
2018-12-25T11:45:57.478Z,1016.05
2018-12-25T11:46:57.503Z,1016.12
2018-12-25T11:47:57.527Z,1016.06
2018-12-25T11:48:57.551Z,1016.07
2018-12-25T11:49:57.575Z,1016.06
2018-12-25T11:50:57.599Z,1016.04
2018-12-25T11:51:57.626Z,1016.04
2018-12-25T11:52:57.649Z,1016.09
2018-12-25T11:53:57.672Z,1016.10
2018-12-25T11:54:57.697Z,1016.12
2018-12-25T11:55:57.721Z,1016.11
2018-12-25T11:56:57.746Z,1016.16
2018-12-25T11:57:57.770Z,1016.14
2018-12-25T11:58:57.794Z,1016.21
2018-12-25T11:59:57.869Z,1016.23
2018-12-25T12:00:57.844Z,1016.20
2018-12-25T12:01:57.866Z,1016.17
2018-12-25T12:02:57.892Z,1016.24
2018-12-25T12:03:57.917Z,1016.21
2018-12-25T12:04:57.941Z,1016.14
2018-12-25T12:05:57.968Z,1016.08